createdAt,value
2023-03-04T00:00:48.251Z,69.28
2023-03-04T00:03:15.713Z,68.07
2023-03-04T00:05:42.380Z,68.09
2023-03-04T00:08:09.133Z,69.58
2023-03-04T00:10:35.781Z,68.88
2023-03-04T00:13:02.405Z,69.80
2023-03-04T00:15:29.143Z,69.90
2023-03-04T00:17:56.220Z,69.09
2023-03-04T00:20:22.813Z,70.44
2023-03-04T00:22:49.422Z,69.60
2023-03-04T00:25:16.178Z,69.85
2023-03-04T00:27:42.681Z,69.52
2023-03-04T00:30:09.995Z,69.85
2023-03-04T00:32:36.675Z,69.92
2023-03-04T00:35:04.456Z,69.90
2023-03-04T00:37:31.085Z,69.76
2023-03-04T00:39:57.866Z,69.98
2023-03-04T00:42:24.817Z,70.98
2023-03-04T00:44:52.129Z,70.30
2023-03-04T00:47:18.995Z,70.15
2023-03-04T00:49:45.550Z,70.44
2023-03-04T00:52:12.174Z,70.35
2023-03-04T00:54:38.737Z,69.97
2023-03-04T00:57:05.353Z,71.43
2023-03-04T00:59:32.108Z,71.19
2023-03-04T01:02:00.089Z,70.60
2023-03-04T01:04:26.866Z,70.55
2023-03-04T01:06:53.738Z,70.85
2023-03-04T01:09:20.398Z,70.72
2023-03-04T01:11:47.020Z,70.26
2023-03-04T01:14:13.672Z,70.00
2023-03-04T01:16:40.304Z,69.74
2023-03-04T01:19:07.033Z,70.05
2023-03-04T01:21:33.670Z,70.21
2023-03-04T01:24:00.522Z,70.28
2023-03-04T01:26:27.120Z,70.01
2023-03-04T01:28:53.765Z,70.60
2023-03-04T01:31:20.402Z,71.91
2023-03-04T01:33:46.973Z,71.39
2023-03-04T01:36:13.525Z,71.21
2023-03-04T01:38:40.305Z,71.75
2023-03-04T01:41:08.005Z,71.40
2023-03-04T01:43:36.634Z,70.74
2023-03-04T01:46:03.645Z,71.00
2023-03-04T01:48:38.987Z,70.84
2023-03-04T01:51:10.821Z,70.23
2023-03-04T01:53:37.614Z,70.12
2023-03-04T01:56:34.366Z,70.17
2023-03-04T01:59:20.063Z,69.94
2023-03-04T02:01:54.470Z,69.67
2023-03-04T02:04:26.137Z,70.07
2023-03-04T02:06:53.055Z,69.33
2023-03-04T02:09:21.340Z,69.79
2023-03-04T02:11:49.746Z,69.52
2023-03-04T02:14:19.433Z,69.07
2023-03-04T02:16:47.080Z,68.90
2023-03-04T02:19:51.279Z,69.14
2023-03-04T02:22:18.063Z,69.23
2023-03-04T02:25:01.881Z,69.04
2023-03-04T02:27:28.800Z,68.88
2023-03-04T02:29:55.461Z,68.26
2023-03-04T02:32:22.268Z,69.48
2023-03-04T02:34:50.810Z,69.43
2023-03-04T02:37:19.207Z,70.89
2023-03-04T02:39:48.480Z,70.35
2023-03-04T02:42:15.944Z,69.47
2023-03-04T02:44:46.461Z,70.58
2023-03-04T02:47:17.789Z,70.32
2023-03-04T02:49:44.868Z,69.58
2023-03-04T02:52:19.409Z,70.00
2023-03-04T02:54:46.303Z,69.09
2023-03-04T02:57:14.900Z,68.09
2023-03-04T02:59:44.462Z,68.52
2023-03-04T03:02:16.408Z,68.73
2023-03-04T03:04:43.046Z,69.00
2023-03-04T03:07:13.707Z,69.30
2023-03-04T03:09:41.128Z,70.63
2023-03-04T03:12:07.837Z,69.31
2023-03-04T03:14:34.556Z,69.32
2023-03-04T03:17:03.475Z,70.45
2023-03-04T03:19:31.507Z,70.26
2023-03-04T03:22:00.540Z,69.55
2023-03-04T03:24:27.226Z,70.20
2023-03-04T03:26:53.851Z,69.10
2023-03-04T03:29:20.472Z,69.35
2023-03-04T03:31:47.049Z,69.18
2023-03-04T03:34:13.793Z,69.52
2023-03-04T03:36:41.721Z,68.83
2023-03-04T03:39:08.341Z,69.22
2023-03-04T03:41:34.946Z,68.13
2023-03-04T03:44:01.907Z,68.81
2023-03-04T03:46:29.845Z,69.49
2023-03-04T03:48:56.502Z,69.31
2023-03-04T03:51:23.171Z,68.15
2023-03-04T03:53:49.793Z,68.46
2023-03-04T03:56:16.390Z,70.05
2023-03-04T03:58:42.973Z,69.52
2023-03-04T04:01:09.661Z,69.01
2023-03-04T04:03:36.629Z,68.54
2023-03-04T04:06:03.409Z,68.83
2023-03-04T04:08:30.026Z,68.83
2023-03-04T04:10:56.606Z,68.43
2023-03-04T04:13:23.303Z,69.19
2023-03-04T04:15:54.304Z,68.61
2023-03-04T04:18:20.896Z,68.57
2023-03-04T04:20:47.544Z,68.17
2023-03-04T04:23:14.075Z,68.78
2023-03-04T04:25:43.600Z,69.75
2023-03-04T04:28:10.358Z,70.59
2023-03-04T04:30:37.057Z,69.92
2023-03-04T04:33:04.799Z,70.45
2023-03-04T04:35:36.564Z,69.87
2023-03-04T04:38:03.280Z,69.82
2023-03-04T04:40:29.895Z,69.43
2023-03-04T04:42:57.054Z,69.62
2023-03-04T04:45:27.424Z,69.50
2023-03-04T04:47:57.310Z,68.74
2023-03-04T04:50:25.128Z,69.43
2023-03-04T04:52:51.773Z,68.32
2023-03-04T04:55:18.493Z,69.23
2023-03-04T04:57:45.052Z,69.21
2023-03-04T05:00:12.542Z,69.12
2023-03-04T05:02:39.607Z,70.06
2023-03-04T05:05:07.446Z,69.62
2023-03-04T05:07:34.301Z,69.16
2023-03-04T05:10:01.064Z,69.23
2023-03-04T05:12:27.814Z,69.06
2023-03-04T05:14:54.408Z,69.46
2023-03-04T05:17:20.978Z,69.04
2023-03-04T05:19:47.575Z,70.36
2023-03-04T05:22:14.080Z,69.77
2023-03-04T05:24:40.636Z,69.26
2023-03-04T05:27:07.148Z,68.28
2023-03-04T05:29:33.782Z,68.51
2023-03-04T05:32:00.343Z,68.97
2023-03-04T05:34:26.863Z,68.44
2023-03-04T05:36:53.417Z,68.95
2023-03-04T05:39:20.115Z,68.19
2023-03-04T05:41:46.674Z,68.37
2023-03-04T05:44:13.324Z,67.88
2023-03-04T05:46:40.002Z,68.24
2023-03-04T05:49:06.636Z,67.71
2023-03-04T05:51:33.192Z,67.97
2023-03-04T05:53:59.729Z,67.45
2023-03-04T05:56:26.315Z,67.54
2023-03-04T05:58:52.886Z,67.25
2023-03-04T06:01:19.442Z,66.94
2023-03-04T06:03:48.544Z,67.95
2023-03-04T06:06:15.401Z,67.36
2023-03-04T06:08:42.015Z,67.13
2023-03-04T06:11:08.799Z,66.73
2023-03-04T06:13:36.579Z,66.42
2023-03-04T06:16:03.379Z,66.61
2023-03-04T06:18:30.105Z,66.82
2023-03-04T06:21:01.481Z,67.08
2023-03-04T06:23:28.990Z,66.24
2023-03-04T06:25:57.913Z,66.42
2023-03-04T06:28:24.965Z,66.44
2023-03-04T06:30:53.092Z,67.84
2023-03-04T06:33:19.900Z,67.79
2023-03-04T06:35:46.551Z,67.29
2023-03-04T06:38:13.294Z,67.07
2023-03-04T06:40:40.152Z,66.76
2023-03-04T06:43:06.880Z,66.92
2023-03-04T06:45:33.372Z,66.99
2023-03-04T06:47:59.883Z,67.00
2023-03-04T06:50:26.582Z,67.03
2023-03-04T06:52:53.276Z,66.64
2023-03-04T06:55:29.191Z,67.08
2023-03-04T06:57:55.916Z,66.81
2023-03-04T07:00:24.133Z,66.50
2023-03-04T07:02:53.367Z,66.32
2023-03-04T07:05:21.311Z,66.69
2023-03-04T07:07:49.461Z,66.10
2023-03-04T07:10:19.767Z,66.04
2023-03-04T07:12:46.310Z,68.15
2023-03-04T07:15:13.171Z,66.84
2023-03-04T07:17:39.748Z,66.17
2023-03-04T07:20:06.832Z,65.94
2023-03-04T07:22:33.418Z,66.33
2023-03-04T07:24:59.951Z,65.92
2023-03-04T07:27:26.662Z,65.76
2023-03-04T07:29:53.217Z,65.41
2023-03-04T07:32:19.984Z,65.77
2023-03-04T07:34:46.666Z,65.69
2023-03-04T07:37:13.292Z,64.88
2023-03-04T07:39:39.894Z,64.91
2023-03-04T07:42:06.438Z,64.55
2023-03-04T07:44:39.366Z,64.90
2023-03-04T07:47:05.995Z,64.64
2023-03-04T07:49:36.795Z,63.39
2023-03-04T07:52:05.134Z,63.10
2023-03-04T07:54:32.422Z,63.46
2023-03-04T07:56:59.028Z,64.01
2023-03-04T08:02:35.867Z,63.15
2023-03-04T08:05:10.380Z,63.50
2023-03-04T08:07:37.136Z,62.56
2023-03-04T08:10:04.626Z,61.72
2023-03-04T08:12:31.252Z,61.78
2023-03-04T08:14:57.818Z,62.03
2023-03-04T08:17:24.498Z,62.67
2023-03-04T08:19:51.221Z,63.14
2023-03-04T08:22:17.905Z,62.98
2023-03-04T08:24:44.442Z,61.98
2023-03-04T08:27:11.073Z,62.64
2023-03-04T08:29:37.779Z,62.54
2023-03-04T08:32:04.661Z,61.88
2023-03-04T08:34:31.530Z,61.48
2023-03-04T08:36:58.185Z,61.67
2023-03-04T08:39:24.742Z,61.02
2023-03-04T08:41:51.361Z,61.60
2023-03-04T08:44:18.286Z,60.11
2023-03-04T08:46:44.895Z,60.03
2023-03-04T08:49:13.085Z,59.84
2023-03-04T08:51:40.040Z,60.61
2023-03-04T08:54:07.077Z,60.58
2023-03-04T08:56:33.645Z,59.98
2023-03-04T08:59:00.168Z,60.40
2023-03-04T09:01:27.168Z,60.33
2023-03-04T09:03:53.798Z,60.50
2023-03-04T09:06:20.477Z,59.25
2023-03-04T09:08:47.054Z,58.32
2023-03-04T09:11:13.846Z,59.03
2023-03-04T09:13:40.535Z,58.90
2023-03-04T09:16:14.947Z,58.94
2023-03-04T09:18:42.167Z,59.53
2023-03-04T09:21:09.530Z,59.17
2023-03-04T09:23:37.417Z,58.31
2023-03-04T09:26:27.196Z,58.65
2023-03-04T09:29:02.534Z,58.03
2023-03-04T09:31:29.817Z,57.60
2023-03-04T09:33:58.674Z,59.04
2023-03-04T09:36:26.616Z,60.02
2023-03-04T09:38:53.221Z,58.27
2023-03-04T09:41:26.864Z,58.94
2023-03-04T09:43:55.247Z,58.52
2023-03-04T09:46:33.935Z,58.51
2023-03-04T09:49:00.787Z,58.69
2023-03-04T09:51:54.421Z,58.89
2023-03-04T09:54:32.547Z,58.89
2023-03-04T09:57:34.621Z,58.21
2023-03-04T10:00:20.088Z,58.47
2023-03-04T10:03:05.082Z,59.62
2023-03-04T10:05:34.329Z,58.35
2023-03-04T10:08:16.948Z,58.86
2023-03-04T10:10:45.091Z,58.45
2023-03-04T10:13:18.364Z,58.54
2023-03-04T10:15:51.237Z,59.14
2023-03-04T10:18:27.681Z,58.83
2023-03-04T10:21:00.587Z,59.98
2023-03-04T10:23:29.847Z,59.40
2023-03-04T10:25:57.848Z,59.32
2023-03-04T10:28:30.423Z,57.76
2023-03-04T10:31:09.431Z,57.58
2023-03-04T10:33:38.902Z,56.86
2023-03-04T10:36:16.771Z,57.72
2023-03-04T10:38:43.596Z,56.44
2023-03-04T10:41:18.361Z,56.95
2023-03-04T10:43:50.858Z,57.50
2023-03-04T10:46:17.651Z,57.69
2023-03-04T10:48:44.952Z,57.40
2023-03-04T10:51:22.416Z,57.30
2023-03-04T10:53:56.001Z,58.02
2023-03-04T10:56:32.822Z,55.01
2023-03-04T10:59:27.999Z,57.00
2023-03-04T11:01:54.900Z,56.65
2023-03-04T11:04:27.467Z,56.61
2023-03-04T11:06:54.406Z,57.38
2023-03-04T11:09:27.840Z,57.64
2023-03-04T11:12:02.089Z,56.86
2023-03-04T11:14:37.240Z,55.42
2023-03-04T11:17:19.057Z,56.88
2023-03-04T11:19:51.942Z,56.11
2023-03-04T11:22:33.834Z,55.70
2023-03-04T11:25:18.188Z,54.96
2023-03-04T11:27:57.774Z,56.61
2023-03-04T11:30:48.111Z,56.82
2023-03-04T11:33:24.023Z,56.28
2023-03-04T11:36:31.640Z,56.70
2023-03-04T11:38:59.622Z,59.79
2023-03-04T11:41:48.715Z,57.65
2023-03-04T11:44:21.142Z,58.63
2023-03-04T11:47:39.347Z,57.62
2023-03-04T11:50:50.847Z,55.58
2023-03-04T18:42:37.593Z,70.82
2023-03-04T18:45:43.536Z,70.00
2023-03-04T18:48:10.221Z,71.13
2023-03-04T18:50:36.908Z,71.11
2023-03-04T18:53:03.942Z,71.96
2023-03-04T18:55:31.816Z,69.85
2023-03-04T18:58:01.316Z,68.92
2023-03-04T19:00:29.039Z,70.34
2023-03-04T19:03:08.467Z,70.68
2023-03-04T19:05:36.026Z,71.61
2023-03-04T19:08:02.817Z,70.85
2023-03-04T19:10:29.553Z,70.75
2023-03-04T19:12:59.774Z,71.45
2023-03-04T19:15:29.612Z,73.89
2023-03-04T19:17:56.328Z,75.71
2023-03-04T19:20:23.171Z,74.03
2023-03-04T19:22:50.988Z,74.05
2023-03-04T19:25:17.869Z,73.85
2023-03-04T19:27:44.596Z,74.65
2023-03-04T19:30:11.778Z,74.42
2023-03-04T19:32:38.510Z,73.37
2023-03-04T19:35:05.645Z,74.16
2023-03-04T19:37:32.416Z,74.03
2023-03-04T19:39:59.092Z,74.48
2023-03-04T19:42:25.695Z,75.32
2023-03-04T19:44:52.265Z,74.95
2023-03-04T19:47:18.932Z,74.00
2023-03-04T19:49:45.689Z,73.53
2023-03-04T19:52:12.413Z,73.55
2023-03-04T19:54:39.429Z,75.29
2023-03-04T19:57:06.086Z,74.92
2023-03-04T19:59:37.707Z,76.01
2023-03-04T20:02:04.497Z,75.83
2023-03-04T20:04:31.566Z,75.96
2023-03-04T20:06:58.384Z,75.09
2023-03-04T20:09:25.068Z,76.74
2023-03-04T20:11:58.408Z,75.26
2023-03-04T20:14:31.612Z,75.82
2023-03-04T20:17:01.106Z,77.45
2023-03-04T20:19:31.865Z,76.70
2023-03-04T20:21:58.843Z,76.97
2023-03-04T20:24:26.723Z,75.48
2023-03-04T20:26:54.086Z,75.10
2023-03-04T20:29:20.961Z,74.24
2023-03-04T20:31:48.248Z,76.79
2023-03-04T20:34:20.093Z,76.40
2023-03-04T20:36:49.090Z,79.53
2023-03-04T20:39:28.111Z,77.89
2023-03-04T20:41:58.029Z,78.87
2023-03-04T20:44:25.017Z,79.80
2023-03-04T20:46:51.787Z,80.18
2023-03-04T20:49:24.393Z,80.82
2023-03-04T20:51:58.083Z,81.78
2023-03-04T20:54:24.848Z,81.75
2023-03-04T20:56:51.469Z,82.59
2023-03-04T20:59:18.718Z,82.69
2023-03-04T21:01:48.079Z,84.08
2023-03-04T21:04:15.928Z,83.46
2023-03-04T21:06:43.735Z,82.57
2023-03-04T21:09:14.521Z,82.86
2023-03-04T21:11:42.334Z,82.75
2023-03-04T21:14:24.331Z,84.03
2023-03-04T21:16:53.374Z,82.99
2023-03-04T21:19:23.120Z,82.23
2023-03-04T21:21:51.807Z,80.49
2023-03-04T21:24:21.260Z,80.87
2023-03-04T21:26:48.639Z,82.29
2023-03-04T21:29:17.146Z,82.18
2023-03-04T21:31:46.402Z,80.38
2023-03-04T21:34:17.961Z,81.75
2023-03-04T21:36:44.714Z,81.96
2023-03-04T21:39:23.661Z,80.88
2023-03-04T21:41:50.765Z,83.05
2023-03-04T21:44:28.437Z,83.39
2023-03-04T21:47:00.728Z,82.40
2023-03-04T21:49:27.814Z,82.33
2023-03-04T21:51:54.787Z,81.86
2023-03-04T21:54:21.619Z,80.98
2023-03-04T21:56:49.471Z,80.94
2023-03-04T21:59:17.553Z,80.35
2023-03-04T22:01:45.139Z,82.84
2023-03-04T22:04:12.384Z,82.03
2023-03-04T22:06:40.812Z,81.84
2023-03-04T22:09:07.964Z,83.01
2023-03-04T22:11:34.830Z,83.15
2023-03-04T22:14:02.982Z,82.57
2023-03-04T22:16:31.756Z,82.05
2023-03-04T22:18:59.224Z,84.22
2023-03-04T22:21:25.889Z,83.67
2023-03-04T22:23:52.541Z,82.43
2023-03-04T22:26:26.896Z,82.46
2023-03-04T22:28:53.495Z,81.75
2023-03-04T22:31:34.972Z,80.42
2023-03-04T22:34:14.028Z,80.38
2023-03-04T22:36:43.955Z,79.89
2023-03-04T22:39:13.803Z,83.56
2023-03-04T22:41:40.637Z,84.73
2023-03-04T22:44:07.722Z,83.25
2023-03-04T22:46:38.094Z,81.88
2023-03-04T22:49:09.647Z,81.32
2023-03-04T22:51:37.230Z,80.83
2023-03-04T22:54:04.207Z,80.36
2023-03-04T22:56:30.921Z,79.73
2023-03-04T22:58:57.512Z,80.39
2023-03-04T23:01:24.259Z,83.65
2023-03-04T23:03:51.415Z,82.28
2023-03-04T23:06:25.195Z,83.74
2023-03-04T23:08:52.447Z,82.32
2023-03-04T23:11:22.125Z,83.47
2023-03-04T23:13:50.140Z,81.63
2023-03-04T23:16:17.853Z,80.57
2023-03-04T23:18:47.240Z,80.23
2023-03-04T23:21:22.086Z,80.04
2023-03-04T23:23:49.023Z,79.86
2023-03-04T23:26:21.251Z,79.14
2023-03-04T23:28:48.213Z,80.47
2023-03-04T23:31:15.477Z,80.82
2023-03-04T23:33:43.181Z,83.15
2023-03-04T23:36:15.733Z,84.49
2023-03-04T23:38:47.750Z,83.78
2023-03-04T23:41:19.950Z,82.69
2023-03-04T23:43:47.139Z,81.77
2023-03-04T23:46:14.274Z,83.08
2023-03-04T23:48:43.669Z,84.61
2023-03-04T23:51:10.389Z,82.75
2023-03-04T23:53:39.055Z,81.89
2023-03-04T23:56:11.120Z,81.05
2023-03-04T23:58:38.021Z,81.34
